Johnson Creek, Wisconsin
Current Conditions -  °F | °C
As of 8:55 AM on Thursday 23 Oct 2014 (Local Time) from KRYV Reporting Station
Clear Clear  
Wind Chill: 37°   Ceiling: Unl
Heat Index: 40°   Visibility: 10mi
Dew Point: 37°   Wind: 5mph
Humidity: 90%   Direction: 170°S
Pressure: 30.16"   Gusts: NA
Location:  43.08°N, 88.77°W
Report Text: KRYV 231355Z AUTO 17004KT 10SM CLR 05/03 A3016 RMK AO2 T00450030
Loading
Personal Weather Stations






























Interactive Weather Map
Tropical Storm Tracking
New forecast layout! Learn more

10-Day Weather Forecast

Advertisements
Track Severe Weather on mobile